Airfield :
LOGIN :

Register | Disclaimer

   EN    FR    IT 

 










Legend :    VFR   Marginal VFR   IFR   Intensive IFR   Very Intensive IFR
Visi :
Ceiling :
>= 8 km
>= 3000ft
5 to 8 km
1000 to 3000 ft
1500m to 5 km
500 to 1000 ft
800 to 1500m
200 to 500 ft
< 800m
< 200 ft
Symbols :   Thunderstorms  Fog  Heavy snow  Heavy precipitations  Wind > 20 kt
SIGMETs :     Misc.  Thunderstorms  Icing  Turbulence  Mountain Waves  Volcanic Ashes






- Airport Elevation : 24 ft
- IATA code : FAO


LPFR - Faro

CURRENT METAR :
  • 021630Z 26009KT 9999 SCT045 17/10 Q1014

EXPIRED METARs :
  • 021600Z 36012KT 9999 SCT045 19/06 Q1014
  • 021530Z 31014KT 290V360 9999 SCT045 18/06 Q1014
  • 021500Z 35015KT 320V020 9999 BKN045 18/07 Q1014
  • 021430Z 32011KT 290V350 9999 BKN040 18/07 Q1014
  • 021400Z 35011KT 9999 BKN040 17/08 Q1014

TAF TAF LPFR
Valid from the 02 at 12:00 until the 03 at 12:00 UTC


021100Z 0212/0312 29013KT 9999 FEW020
TEMPO 0212/0218 BKN030
BECMG 0220/0222 30007KT
BECMG 0301/0304 VRB02KT
BECMG 0309/0312 12010KT



MET'MAP, your aeronautical weather chart ! - Copyright ORBIFLY December 2007 - Disclaimer

ORBIFLY MET'MAP TEAM :

Programming & Development : Alexandra Zaïnal
Concept & original design : Baudouin d'Aumeries
Assistance for programming : Marc-Olivier Méhu
Technical & hardware support : Manuel Goepfert

Contact : metmap@orbifly.com




SOURCES & CREDITS :

   NOAA